createdAt,value
2022-11-21T00:08:31.648Z,100283.00
2022-11-21T00:18:54.704Z,100275.00
2022-11-21T00:29:16.500Z,100249.00
2022-11-21T00:39:39.387Z,100251.00
2022-11-21T00:50:01.028Z,100232.00
2022-11-21T01:00:24.256Z,100227.00
2022-11-21T01:10:47.139Z,100229.00
2022-11-21T01:21:15.098Z,100220.00
2022-11-21T01:31:36.923Z,100228.00
2022-11-21T01:42:00.061Z,100202.00
2022-11-21T01:52:26.980Z,100210.00
2022-11-21T02:02:55.285Z,100213.00
2022-11-21T02:13:17.781Z,100201.00
2022-11-21T02:23:46.231Z,100185.00
2022-11-21T02:34:09.305Z,100163.00
2022-11-21T02:44:36.384Z,100149.00
2022-11-21T02:54:59.552Z,100138.00
2022-11-21T03:05:22.003Z,100139.00
2022-11-21T03:15:45.251Z,100135.00
2022-11-21T03:26:06.977Z,100137.00
2022-11-21T03:36:30.092Z,100145.00
2022-11-21T03:46:53.445Z,100144.00
2022-11-21T03:57:17.326Z,100153.00
2022-11-21T04:07:39.069Z,100143.00
2022-11-21T04:18:02.800Z,100154.00
2022-11-21T04:28:24.965Z,100156.00
2022-11-21T04:38:47.718Z,100144.00
2022-11-21T04:49:09.449Z,100141.00
2022-11-21T04:59:32.613Z,100158.00
2022-11-21T05:09:54.512Z,100151.00
2022-11-21T05:20:18.436Z,100166.00
2022-11-21T05:30:40.213Z,100171.00
2022-11-21T05:41:03.220Z,100164.00
2022-11-21T05:51:24.660Z,100162.00
2022-11-21T06:02:04.923Z,100140.00
2022-11-21T06:12:26.687Z,100149.00
2022-11-21T06:22:50.875Z,100165.00
2022-11-21T06:33:12.738Z,100163.00
2022-11-21T06:43:35.796Z,100167.00
2022-11-21T06:53:59.310Z,100173.00
2022-11-21T07:04:22.680Z,100186.00
2022-11-21T07:14:44.069Z,100200.00
2022-11-21T07:25:07.968Z,100201.00
2022-11-21T07:35:29.740Z,100210.00
2022-11-21T07:45:53.061Z,100220.00
2022-11-21T07:56:14.835Z,100227.00
2022-11-21T08:06:38.131Z,100227.00
2022-11-21T08:16:59.577Z,100246.00
2022-11-21T08:27:24.405Z,100241.00
2022-11-21T08:37:45.610Z,100246.00
2022-11-21T08:48:12.528Z,100263.00
2022-11-21T08:58:34.068Z,100282.00
2022-11-21T09:08:57.029Z,100275.00
2022-11-21T09:19:18.555Z,100299.00
2022-11-21T09:29:41.816Z,100301.00
2022-11-21T09:40:03.457Z,100322.00
2022-11-21T09:50:33.844Z,100314.00
2022-11-21T10:00:55.892Z,100320.00
2022-11-21T10:11:32.619Z,100331.00
2022-11-21T10:22:27.313Z,100334.00
2022-11-21T10:32:53.654Z,100338.00
2022-11-21T10:43:44.837Z,100348.00
2022-11-21T10:54:29.118Z,100360.00
2022-11-21T11:05:11.076Z,100367.00
2022-11-21T11:15:34.483Z,100374.00
2022-11-21T11:25:57.744Z,100384.00
2022-11-21T11:36:34.037Z,100391.00
2022-11-21T11:47:21.583Z,100380.00
2022-11-21T11:57:46.952Z,100371.00
2022-11-21T12:08:40.874Z,100369.00
2022-11-21T12:19:06.900Z,100383.00
2022-11-21T12:29:43.127Z,100380.00
2022-11-21T12:40:23.774Z,100358.00
2022-11-21T12:51:11.983Z,100370.00
2022-11-21T13:01:46.090Z,100375.00
2022-11-21T13:12:12.735Z,100355.00
2022-11-21T13:22:57.330Z,100348.00
2022-11-21T13:33:48.173Z,100348.00
2022-11-21T13:44:38.721Z,100347.00
2022-11-21T13:55:19.246Z,100346.00
2022-11-21T14:06:07.790Z,100332.00
2022-11-21T14:16:36.646Z,100319.00
2022-11-21T14:27:00.725Z,100315.00
2022-11-21T14:37:22.240Z,100303.00
2022-11-21T14:47:49.938Z,100293.00
2022-11-21T14:58:17.400Z,100316.00
2022-11-21T15:19:23.292Z,100324.00
2022-11-21T15:29:46.681Z,100320.00
2022-11-21T15:40:20.187Z,100316.00
2022-11-21T15:50:43.383Z,100311.00
2022-11-21T16:01:05.495Z,100302.00
2022-11-21T16:11:30.655Z,100297.00
2022-11-21T16:21:53.697Z,100294.00
2022-11-21T16:32:16.689Z,100293.00
2022-11-21T16:42:38.313Z,100283.00
2022-11-21T16:53:01.280Z,100286.00
2022-11-21T17:03:23.216Z,100286.00
2022-11-21T17:13:48.263Z,100288.00
2022-11-21T17:24:10.288Z,100270.00
2022-11-21T17:34:33.650Z,100277.00
2022-11-21T17:44:55.545Z,100259.00
2022-11-21T17:55:18.842Z,100260.00
2022-11-21T18:05:40.390Z,100232.00
2022-11-21T18:16:05.410Z,100229.00
2022-11-21T18:26:36.759Z,100234.00
2022-11-21T18:37:00.767Z,100230.00
2022-11-21T18:47:22.242Z,100222.00
2022-11-21T18:57:45.291Z,100189.00
2022-11-21T19:08:07.143Z,100185.00
2022-11-21T19:18:37.841Z,100198.00
2022-11-21T19:29:04.948Z,100169.00
2022-11-21T19:39:32.791Z,100154.00
2022-11-21T19:50:07.355Z,100137.00
2022-11-21T20:00:31.855Z,100099.00
2022-11-21T20:10:53.560Z,100090.00
2022-11-21T20:21:18.768Z,100095.00
2022-11-21T20:31:40.975Z,100103.00
2022-11-21T20:42:04.496Z,100094.00
2022-11-21T21:03:12.758Z,100106.00
2022-11-21T21:13:35.605Z,100090.00
2022-11-21T21:24:00.289Z,100132.00
2022-11-21T21:34:24.470Z,100151.00
2022-11-21T21:44:47.621Z,100162.00
2022-11-21T21:55:10.010Z,100155.00
2022-11-21T22:05:33.449Z,100160.00
2022-11-21T22:15:56.980Z,100147.00
2022-11-21T22:26:20.345Z,100124.00
2022-11-21T22:36:43.006Z,100118.00
2022-11-21T22:47:06.043Z,100095.00
2022-11-21T22:57:28.126Z,100094.00
2022-11-21T23:07:51.748Z,100067.00
2022-11-21T23:18:14.277Z,100073.00
2022-11-21T23:28:37.794Z,100074.00
2022-11-21T23:38:59.804Z,100069.00
2022-11-21T23:49:22.995Z,100056.00
2022-11-21T23:59:44.712Z,100053.00
